Norwegian Jewel — C6TX6 — position and weather

sailwx.info

Track history (hours):
 
Tides and Currents Weather Stations Pressure Air Temp Water Temp Dewpoint Dewpoint Depression Visibility Wind Speed Wind Dir Waves Ship Positions

Norwegian Jewel

Last reported at 2018-Dec-09 13:59 UTC. Time now 2018-Dec-11 06:56 UTC.
Position S 46°31' E 167°38'.

Type: Passenger vessel. MMSI: 311827000.

Date/timePositionNaut miles runAvg speedWind from/ knotsBaromVisibWave heightAir tempDewpointWater temp
2018-Dec-09 13:59S 46°31' E 167°38'916.0
2018-Dec-09 13:26S 46°34' E 167°50'715.8
2018-Dec-09 13:00S 46°36' E 167°59'816.1
2018-Dec-09 12:30S 46°39' E 168°10'815.9
2018-Dec-09 12:01S 46°41' E 168°21'816.2
2018-Dec-09 11:31S 46°41' E 168°33'816.3
2018-Dec-09 11:00S 46°43' E 168°44'816.4
2018-Dec-09 10:30S 46°46' E 168°55'816.4
2018-Dec-09 10:00S 46°46' E 169°07'816.0
2018-Dec-09 09:31S 46°46' E 169°19'816.8
2018-Dec-09 09:01S 46°44' E 169°31'297 6.5
2018-Dec-07 11:34S 42°54' E 173°54'114.4
2018-Dec-07 11:30S 42°53' E 173°55'1013.8
2018-Dec-07 10:49S 42°44' E 174°01'413.9
2018-Dec-07 10:30S 42°41' E 174°03'714.0
2018-Dec-07 09:59S 42°34' E 174°08'613.7
2018-Dec-07 09:30S 42°28' E 174°12'714.5
2018-Dec-07 09:00S 42°22' E 174°16'815.1
2018-Dec-07 08:30S 42°15' E 174°19'714.7
2018-Dec-07 08:01S 42°08' E 174°24'714.9
2018-Dec-07 07:30S 42°01' E 174°28'815.3
2018-Dec-07 07:00S 41°54' E 174°32'815.5
2018-Dec-07 06:30S 41°47' E 174°36'815.3
2018-Dec-07 06:00S 41°40' E 174°40'816.1
2018-Dec-07 05:30S 41°33' E 174°44'815.6
2018-Dec-07 05:00S 41°25' E 174°48'612.7
2018-Dec-07 04:30S 41°19' E 174°51'4 0.4
2018-Dec-06 18:42S 41°16' E 174°47'0 0.5
2018-Dec-06 18:30S 41°16' E 174°47'4 7.1
2018-Dec-06 17:54S 41°19' E 174°51'716.4
2018-Dec-06 17:31S 41°26' E 174°50'1121.0
2018-Dec-06 17:01S 41°34' E 174°59'1020.7
2018-Dec-06 16:31S 41°41' E 175°09'1020.7
2018-Dec-06 16:01S 41°48' E 175°19'1216.1
2018-Dec-06 15:14S 41°45' E 175°36'254 9.9
2018-Dec-05 13:35S 38°14' E 178°41'5218.8
2018-Dec-05 10:50S 37°27' E 178°14'2222.9
2018-Dec-05 09:53S 37°25' E 177°47'822.1
2018-Dec-05 09:30S 37°25' E 177°36'1121.9
2018-Dec-05 09:01S 37°24' E 177°23'1121.9
2018-Dec-05 08:31S 37°24' E 177°09'1121.9
2018-Dec-05 08:01S 37°25' E 176°55'1121.9
2018-Dec-05 07:31S 37°27' E 176°42'1121.9
2018-Dec-05 07:01S 37°30' E 176°28'1121.7
2018-Dec-05 06:30S 37°34' E 176°16'612.1
2018-Dec-05 06:01S 37°38' E 176°10'1 1.4
2018-Dec-05 05:29S 37°39' E 176°11'0 0.0
2018-Dec-05 04:59S 37°39' E 176°11'0 0.0
2018-Dec-05 04:29S 37°39' E 176°11'0 0.0
2018-Dec-05 03:59S 37°39' E 176°11'0 0.0
2018-Dec-05 03:29S 37°39' E 176°11'0 0.0
2018-Dec-05 02:59S 37°39' E 176°11'0 0.0
2018-Dec-05 02:29S 37°39' E 176°11'0 0.0
2018-Dec-05 01:59S 37°39' E 176°11'0 0.0
2018-Dec-05 01:29S 37°39' E 176°11'0 0.0
2018-Dec-05 00:59S 37°39' E 176°11'0 0.0
2018-Dec-05 00:29S 37°39' E 176°11'0 0.0
2018-Dec-04 23:59S 37°39' E 176°11'0 0.0
2018-Dec-04 23:29S 37°39' E 176°11'0 0.0
2018-Dec-04 22:59S 37°39' E 176°11'0 0.0
2018-Dec-04 22:29S 37°39' E 176°11'0 0.0
2018-Dec-04 21:59S 37°39' E 176°11'0 0.0
2018-Dec-04 21:29S 37°39' E 176°11'0 0.0
2018-Dec-04 20:59S 37°39' E 176°11'0 0.0
2018-Dec-04 20:29S 37°39' E 176°11'0 0.0
2018-Dec-04 19:59S 37°39' E 176°11'0 0.0
2018-Dec-04 19:29S 37°39' E 176°11'0 0.0
2018-Dec-04 18:59S 37°39' E 176°11'0 0.0
2018-Dec-04 18:29S 37°39' E 176°11'0 0.0
2018-Dec-04 17:59S 37°39' E 176°11'0 0.1
2018-Dec-04 17:30S 37°39' E 176°11'4 7.4
2018-Dec-04 17:00S 37°35' E 176°12'817.0
2018-Dec-04 16:31S 37°27' E 176°17'1223.7
2018-Dec-04 16:01S 37°18' E 176°25'1223.7
2018-Dec-04 15:31S 37°06' E 176°29'8212.1
2018-Dec-04 08:41S 36°47' E 174°48'213.1
2018-Dec-04 08:30S 36°49' E 174°50'3 6.7
2018-Dec-04 08:01S 36°50' E 174°46'0 0.2
2018-Dec-04 07:29S 36°51' E 174°46'0 0.0
2018-Dec-04 06:59S 36°51' E 174°46'0 0.0
2018-Dec-04 06:29S 36°51' E 174°46'0 0.0
2018-Dec-04 05:59S 36°51' E 174°46'0 0.0
2018-Dec-04 05:29S 36°51' E 174°46'0 0.0
2018-Dec-04 04:59S 36°51' E 174°46'0 0.0
2018-Dec-04 04:29S 36°51' E 174°46'0 0.0
2018-Dec-04 03:59S 36°51' E 174°46'0 0.0
2018-Dec-04 03:29S 36°51' E 174°46'0 0.0
2018-Dec-04 02:59S 36°51' E 174°46'0 0.0
2018-Dec-04 02:29S 36°51' E 174°46'0 0.0
2018-Dec-04 01:59S 36°51' E 174°46'0 0.0
2018-Dec-04 01:29S 36°51' E 174°46'0 0.0
2018-Dec-04 00:59S 36°51' E 174°46'0 0.0
2018-Dec-04 00:26S 36°51' E 174°46'0 0.0
2018-Dec-03 23:59S 36°51' E 174°46'0 0.0
2018-Dec-03 23:29S 36°51' E 174°46'0 0.0
2018-Dec-03 23:00S 36°51' E 174°46'0 0.0
2018-Dec-03 22:31S 36°51' E 174°46'0 0.7
2018-Dec-03 22:01S 36°50' E 174°46'3 6.2
2018-Dec-03 21:30S 36°49' E 174°50'  
2018-Dec-01 12:20S 33°53' E 152°59'720.9
2018-Dec-01 12:01S 33°53' E 152°51'1020.6
2018-Dec-01 11:31S 33°53' E 152°38'1020.2
2018-Dec-01 11:01S 33°52' E 152°26'1020.4
2018-Dec-01 10:30S 33°52' E 152°14'1121.0
2018-Dec-01 09:58S 33°52' E 151°60'920.7
2018-Dec-01 09:31S 33°51' E 151°49'1020.5
2018-Dec-01 09:01S 33°51' E 151°36'1020.7
2018-Dec-01 08:31S 33°51' E 151°24'612.6
2018-Dec-01 08:00S 33°50' E 151°16'3 6.2
2018-Dec-01 07:28S 33°51' E 151°13'0 0.2
2018-Dec-01 06:59S 33°52' E 151°13'0 0.0
2018-Dec-01 06:29S 33°52' E 151°13'0 0.0
2018-Dec-01 05:59S 33°52' E 151°13'0 0.0
2018-Dec-01 05:29S 33°52' E 151°13'0 0.0
2018-Dec-01 04:59S 33°52' E 151°13'0 0.0
2018-Dec-01 04:29S 33°52' E 151°13'0 0.0
2018-Dec-01 03:59S 33°52' E 151°13'0 0.0
2018-Dec-01 03:29S 33°52' E 151°13'0 0.0
2018-Dec-01 02:59S 33°52' E 151°13'0 0.0
2018-Dec-01 02:26S 33°52' E 151°13'0 0.0
2018-Dec-01 01:59S 33°52' E 151°13'0 0.0
2018-Dec-01 01:26S 33°52' E 151°13'0 0.0
2018-Dec-01 00:59S 33°52' E 151°13'0 0.0
2018-Dec-01 00:29S 33°52' E 151°13'0 0.0
2018-Nov-30 23:59S 33°52' E 151°13'0 0.0
2018-Nov-30 23:29S 33°52' E 151°13'0 0.0
2018-Nov-30 22:59S 33°52' E 151°13'0 0.0
2018-Nov-30 22:23S 33°52' E 151°13'0 0.0
2018-Nov-30 21:59S 33°52' E 151°13'0 0.0
2018-Nov-30 21:29S 33°52' E 151°13'0 0.0
2018-Nov-30 20:59S 33°52' E 151°13'0 0.0
2018-Nov-30 20:26S 33°52' E 151°13'0 0.0
2018-Nov-30 19:59S 33°52' E 151°13'0 0.0
2018-Nov-30 19:29S 33°52' E 151°13'0 0.0
2018-Nov-30 18:56S 33°52' E 151°13'0 0.8
2018-Nov-30 18:30S 33°51' E 151°13'4 7.4
2018-Nov-30 18:00S 33°50' E 151°17'612.3
2018-Nov-30 17:31S 33°50' E 151°24'5 9.5
2018-Nov-30 17:01S 33°51' E 151°30'5 9.3
2018-Nov-30 16:30S 33°51' E 151°35'5 9.3
2018-Nov-30 16:01S 33°51' E 151°41'5 9.3
2018-Nov-30 15:31S 33°52' E 151°47'5 9.6
2018-Nov-30 15:01S 33°52' E 151°52'5 9.4
2018-Nov-30 14:31S 33°52' E 151°58'6 9.5
2018-Nov-30 13:54S 33°52' E 152°05'4 9.5
2018-Nov-30 13:31S 33°53' E 152°09'610.3
2018-Nov-30 12:57S 33°53' E 152°16'510.0
2018-Nov-30 12:25S 33°48' E 152°20'610.2
2018-Nov-30 11:47S 33°42' E 152°17'910.2
2018-Nov-30 10:56S 33°34' E 152°12'7 9.9
2018-Nov-30 10:13S 33°28' E 152°08'510.0
2018-Nov-30 09:41S 33°23' E 152°05'210.0
2018-Nov-30 09:28S 33°21' E 152°04'510.1
2018-Nov-30 09:01S 33°17' E 152°02'510.2
2018-Nov-30 08:30S 33°13' E 151°59'610.1
2018-Nov-30 07:56S 33°07' E 151°56'510.5
2018-Nov-30 07:30S 33°03' E 151°54'510.3
2018-Nov-30 07:01S 32°59' E 151°51'4 9.0
2018-Nov-30 06:31S 32°55' E 151°49'2 3.8
2018-Nov-30 05:59S 32°55' E 151°47'0 0.0
2018-Nov-30 05:29S 32°55' E 151°47'0 0.0
2018-Nov-30 04:59S 32°55' E 151°47'0 0.0
2018-Nov-30 04:29S 32°55' E 151°47'0 0.0
2018-Nov-30 03:47S 32°55' E 151°47'0 0.0
2018-Nov-30 03:23S 32°55' E 151°47'0 0.0
2018-Nov-30 02:59S 32°55' E 151°47'0 0.0
2018-Nov-30 02:17S 32°55' E 151°47'0 0.0
2018-Nov-30 01:50S 32°55' E 151°47'0 0.0
2018-Nov-30 01:26S 32°55' E 151°47'0 0.0
2018-Nov-30 00:59S 32°55' E 151°47'0 0.0
2018-Nov-30 00:29S 32°55' E 151°47'0 0.0
2018-Nov-29 23:59S 32°55' E 151°47'0 0.0
2018-Nov-29 23:29S 32°55' E 151°47'0 0.0
2018-Nov-29 22:56S 32°55' E 151°47'0 0.0
2018-Nov-29 22:29S 32°55' E 151°47'0 0.0
2018-Nov-29 21:56S 32°55' E 151°47'0 0.0
2018-Nov-29 21:29S 32°55' E 151°47'0 0.0
2018-Nov-29 20:59S 32°55' E 151°47'0 0.0
2018-Nov-29 20:30S 32°55' E 151°47'0 0.8
2018-Nov-29 20:01S 32°55' E 151°47'3 6.0
2018-Nov-29 19:30S 32°56' E 151°50'5 9.6
2018-Nov-29 19:00S 33°00' E 151°53'510.7
2018-Nov-29 18:30S 33°05' E 151°56'612.5
2018-Nov-29 18:00S 33°03' E 152°03'816.4
2018-Nov-29 17:31S 32°59' E 152°12'817.0
2018-Nov-29 17:01S 32°56' E 152°22'917.0
2018-Nov-29 16:31S 32°50' E 152°29'816.2
2018-Nov-29 16:00S 32°44' E 152°35'612.4
2018-Nov-29 15:30S 32°40' E 152°41'713.1
2018-Nov-29 15:00S 32°35' E 152°46'713.0
2018-Nov-29 14:27S 32°29' E 152°50'  
Track history (hours):
 
Tides and Currents Weather Stations Pressure Air Temp Water Temp Dewpoint Dewpoint Depression Visibility Wind Speed Wind Dir Waves Ship Positions

Norwegian Jewel

Last reported at 2018-Dec-09 13:59 UTC. Time now 2018-Dec-11 06:56 UTC.
Position S 46°31' E 167°38'.

Type: Passenger vessel. MMSI: 311827000.

Date/timePositionNaut miles runAvg speedWind from/ knotsBaromVisibWave heightAir tempDewpointWater temp
2018-Dec-09 13:59S 46°31' E 167°38'916.0
2018-Dec-09 13:26S 46°34' E 167°50'715.8
2018-Dec-09 13:00S 46°36' E 167°59'816.1
2018-Dec-09 12:30S 46°39' E 168°10'815.9
2018-Dec-09 12:01S 46°41' E 168°21'816.2
2018-Dec-09 11:31S 46°41' E 168°33'816.3
2018-Dec-09 11:00S 46°43' E 168°44'816.4
2018-Dec-09 10:30S 46°46' E 168°55'816.4
2018-Dec-09 10:00S 46°46' E 169°07'816.0
2018-Dec-09 09:31S 46°46' E 169°19'816.8
2018-Dec-09 09:01S 46°44' E 169°31'297 6.5
2018-Dec-07 11:34S 42°54' E 173°54'114.4
2018-Dec-07 11:30S 42°53' E 173°55'1013.8
2018-Dec-07 10:49S 42°44' E 174°01'413.9
2018-Dec-07 10:30S 42°41' E 174°03'714.0
2018-Dec-07 09:59S 42°34' E 174°08'613.7
2018-Dec-07 09:30S 42°28' E 174°12'714.5
2018-Dec-07 09:00S 42°22' E 174°16'815.1
2018-Dec-07 08:30S 42°15' E 174°19'714.7
2018-Dec-07 08:01S 42°08' E 174°24'714.9
2018-Dec-07 07:30S 42°01' E 174°28'815.3
2018-Dec-07 07:00S 41°54' E 174°32'815.5
2018-Dec-07 06:30S 41°47' E 174°36'815.3
2018-Dec-07 06:00S 41°40' E 174°40'816.1
2018-Dec-07 05:30S 41°33' E 174°44'815.6
2018-Dec-07 05:00S 41°25' E 174°48'612.7
2018-Dec-07 04:30S 41°19' E 174°51'4 0.4
2018-Dec-06 18:42S 41°16' E 174°47'0 0.5
2018-Dec-06 18:30S 41°16' E 174°47'4 7.1
2018-Dec-06 17:54S 41°19' E 174°51'716.4
2018-Dec-06 17:31S 41°26' E 174°50'1121.0
2018-Dec-06 17:01S 41°34' E 174°59'1020.7
2018-Dec-06 16:31S 41°41' E 175°09'1020.7
2018-Dec-06 16:01S 41°48' E 175°19'1216.1
2018-Dec-06 15:14S 41°45' E 175°36'254 9.9
2018-Dec-05 13:35S 38°14' E 178°41'5218.8
2018-Dec-05 10:50S 37°27' E 178°14'2222.9
2018-Dec-05 09:53S 37°25' E 177°47'822.1
2018-Dec-05 09:30S 37°25' E 177°36'1121.9
2018-Dec-05 09:01S 37°24' E 177°23'1121.9
2018-Dec-05 08:31S 37°24' E 177°09'1121.9
2018-Dec-05 08:01S 37°25' E 176°55'1121.9
2018-Dec-05 07:31S 37°27' E 176°42'1121.9
2018-Dec-05 07:01S 37°30' E 176°28'1121.7
2018-Dec-05 06:30S 37°34' E 176°16'612.1
2018-Dec-05 06:01S 37°38' E 176°10'1 1.4
2018-Dec-05 05:29S 37°39' E 176°11'0 0.0
2018-Dec-05 04:59S 37°39' E 176°11'0 0.0
2018-Dec-05 04:29S 37°39' E 176°11'0 0.0
2018-Dec-05 03:59S 37°39' E 176°11'0 0.0
2018-Dec-05 03:29S 37°39' E 176°11'0 0.0
2018-Dec-05 02:59S 37°39' E 176°11'0 0.0
2018-Dec-05 02:29S 37°39' E 176°11'0 0.0
2018-Dec-05 01:59S 37°39' E 176°11'0 0.0
2018-Dec-05 01:29S 37°39' E 176°11'0 0.0
2018-Dec-05 00:59S 37°39' E 176°11'0 0.0
2018-Dec-05 00:29S 37°39' E 176°11'0 0.0
2018-Dec-04 23:59S 37°39' E 176°11'0 0.0
2018-Dec-04 23:29S 37°39' E 176°11'0 0.0
2018-Dec-04 22:59S 37°39' E 176°11'0 0.0
2018-Dec-04 22:29S 37°39' E 176°11'0 0.0
2018-Dec-04 21:59S 37°39' E 176°11'0 0.0
2018-Dec-04 21:29S 37°39' E 176°11'0 0.0
2018-Dec-04 20:59S 37°39' E 176°11'0 0.0
2018-Dec-04 20:29S 37°39' E 176°11'0 0.0
2018-Dec-04 19:59S 37°39' E 176°11'0 0.0
2018-Dec-04 19:29S 37°39' E 176°11'0 0.0
2018-Dec-04 18:59S 37°39' E 176°11'0 0.0
2018-Dec-04 18:29S 37°39' E 176°11'0 0.0
2018-Dec-04 17:59S 37°39' E 176°11'0 0.1
2018-Dec-04 17:30S 37°39' E 176°11'4 7.4
2018-Dec-04 17:00S 37°35' E 176°12'817.0
2018-Dec-04 16:31S 37°27' E 176°17'1223.7
2018-Dec-04 16:01S 37°18' E 176°25'1223.7
2018-Dec-04 15:31S 37°06' E 176°29'8212.1
2018-Dec-04 08:41S 36°47' E 174°48'213.1
2018-Dec-04 08:30S 36°49' E 174°50'3 6.7
2018-Dec-04 08:01S 36°50' E 174°46'0 0.2
2018-Dec-04 07:29S 36°51' E 174°46'0 0.0
2018-Dec-04 06:59S 36°51' E 174°46'0 0.0
2018-Dec-04 06:29S 36°51' E 174°46'0 0.0
2018-Dec-04 05:59S 36°51' E 174°46'0 0.0
2018-Dec-04 05:29S 36°51' E 174°46'0 0.0
2018-Dec-04 04:59S 36°51' E 174°46'0 0.0
2018-Dec-04 04:29S 36°51' E 174°46'0 0.0
2018-Dec-04 03:59S 36°51' E 174°46'0 0.0
2018-Dec-04 03:29S 36°51' E 174°46'0 0.0
2018-Dec-04 02:59S 36°51' E 174°46'0 0.0
2018-Dec-04 02:29S 36°51' E 174°46'0 0.0
2018-Dec-04 01:59S 36°51' E 174°46'0 0.0
2018-Dec-04 01:29S 36°51' E 174°46'0 0.0
2018-Dec-04 00:59S 36°51' E 174°46'0 0.0
2018-Dec-04 00:26S 36°51' E 174°46'0 0.0
2018-Dec-03 23:59S 36°51' E 174°46'0 0.0
2018-Dec-03 23:29S 36°51' E 174°46'0 0.0
2018-Dec-03 23:00S 36°51' E 174°46'0 0.0
2018-Dec-03 22:31S 36°51' E 174°46'0 0.7
2018-Dec-03 22:01S 36°50' E 174°46'3 6.2
2018-Dec-03 21:30S 36°49' E 174°50'  
2018-Dec-01 12:20S 33°53' E 152°59'720.9
2018-Dec-01 12:01S 33°53' E 152°51'1020.6
2018-Dec-01 11:31S 33°53' E 152°38'1020.2
2018-Dec-01 11:01S 33°52' E 152°26'1020.4
2018-Dec-01 10:30S 33°52' E 152°14'1121.0
2018-Dec-01 09:58S 33°52' E 151°60'920.7
2018-Dec-01 09:31S 33°51' E 151°49'1020.5
2018-Dec-01 09:01S 33°51' E 151°36'1020.7
2018-Dec-01 08:31S 33°51' E 151°24'612.6
2018-Dec-01 08:00S 33°50' E 151°16'3 6.2
2018-Dec-01 07:28S 33°51' E 151°13'0 0.2
2018-Dec-01 06:59S 33°52' E 151°13'0 0.0
2018-Dec-01 06:29S 33°52' E 151°13'0 0.0
2018-Dec-01 05:59S 33°52' E 151°13'0 0.0
2018-Dec-01 05:29S 33°52' E 151°13'0 0.0
2018-Dec-01 04:59S 33°52' E 151°13'0 0.0
2018-Dec-01 04:29S 33°52' E 151°13'0 0.0
2018-Dec-01 03:59S 33°52' E 151°13'0 0.0
2018-Dec-01 03:29S 33°52' E 151°13'0 0.0
2018-Dec-01 02:59S 33°52' E 151°13'0 0.0
2018-Dec-01 02:26S 33°52' E 151°13'0 0.0
2018-Dec-01 01:59S 33°52' E 151°13'0 0.0
2018-Dec-01 01:26S 33°52' E 151°13'0 0.0
2018-Dec-01 00:59S 33°52' E 151°13'0 0.0
2018-Dec-01 00:29S 33°52' E 151°13'0 0.0
2018-Nov-30 23:59S 33°52' E 151°13'0 0.0
2018-Nov-30 23:29S 33°52' E 151°13'0 0.0
2018-Nov-30 22:59S 33°52' E 151°13'0 0.0
2018-Nov-30 22:23S 33°52' E 151°13'0 0.0
2018-Nov-30 21:59S 33°52' E 151°13'0 0.0
2018-Nov-30 21:29S 33°52' E 151°13'0 0.0
2018-Nov-30 20:59S 33°52' E 151°13'0 0.0
2018-Nov-30 20:26S 33°52' E 151°13'0 0.0
2018-Nov-30 19:59S 33°52' E 151°13'0 0.0
2018-Nov-30 19:29S 33°52' E 151°13'0 0.0
2018-Nov-30 18:56S 33°52' E 151°13'0 0.8
2018-Nov-30 18:30S 33°51' E 151°13'4 7.4
2018-Nov-30 18:00S 33°50' E 151°17'612.3
2018-Nov-30 17:31S 33°50' E 151°24'5 9.5
2018-Nov-30 17:01S 33°51' E 151°30'5 9.3
2018-Nov-30 16:30S 33°51' E 151°35'5 9.3
2018-Nov-30 16:01S 33°51' E 151°41'5 9.3
2018-Nov-30 15:31S 33°52' E 151°47'5 9.6
2018-Nov-30 15:01S 33°52' E 151°52'5 9.4
2018-Nov-30 14:31S 33°52' E 151°58'6 9.5
2018-Nov-30 13:54S 33°52' E 152°05'4 9.5
2018-Nov-30 13:31S 33°53' E 152°09'610.3
2018-Nov-30 12:57S 33°53' E 152°16'510.0
2018-Nov-30 12:25S 33°48' E 152°20'610.2
2018-Nov-30 11:47S 33°42' E 152°17'910.2
2018-Nov-30 10:56S 33°34' E 152°12'7 9.9
2018-Nov-30 10:13S 33°28' E 152°08'510.0
2018-Nov-30 09:41S 33°23' E 152°05'210.0
2018-Nov-30 09:28S 33°21' E 152°04'510.1
2018-Nov-30 09:01S 33°17' E 152°02'510.2
2018-Nov-30 08:30S 33°13' E 151°59'610.1
2018-Nov-30 07:56S 33°07' E 151°56'510.5
2018-Nov-30 07:30S 33°03' E 151°54'510.3
2018-Nov-30 07:01S 32°59' E 151°51'4 9.0
2018-Nov-30 06:31S 32°55' E 151°49'2 3.8
2018-Nov-30 05:59S 32°55' E 151°47'0 0.0
2018-Nov-30 05:29S 32°55' E 151°47'0 0.0
2018-Nov-30 04:59S 32°55' E 151°47'0 0.0
2018-Nov-30 04:29S 32°55' E 151°47'0 0.0
2018-Nov-30 03:47S 32°55' E 151°47'0 0.0
2018-Nov-30 03:23S 32°55' E 151°47'0 0.0
2018-Nov-30 02:59S 32°55' E 151°47'0 0.0
2018-Nov-30 02:17S 32°55' E 151°47'0 0.0
2018-Nov-30 01:50S 32°55' E 151°47'0 0.0
2018-Nov-30 01:26S 32°55' E 151°47'0 0.0
2018-Nov-30 00:59S 32°55' E 151°47'0 0.0
2018-Nov-30 00:29S 32°55' E 151°47'0 0.0
2018-Nov-29 23:59S 32°55' E 151°47'0 0.0
2018-Nov-29 23:29S 32°55' E 151°47'0 0.0
2018-Nov-29 22:56S 32°55' E 151°47'0 0.0
2018-Nov-29 22:29S 32°55' E 151°47'0 0.0
2018-Nov-29 21:56S 32°55' E 151°47'0 0.0
2018-Nov-29 21:29S 32°55' E 151°47'0 0.0
2018-Nov-29 20:59S 32°55' E 151°47'0 0.0
2018-Nov-29 20:30S 32°55' E 151°47'0 0.8
2018-Nov-29 20:01S 32°55' E 151°47'3 6.0
2018-Nov-29 19:30S 32°56' E 151°50'5 9.6
2018-Nov-29 19:00S 33°00' E 151°53'510.7
2018-Nov-29 18:30S 33°05' E 151°56'612.5
2018-Nov-29 18:00S 33°03' E 152°03'816.4
2018-Nov-29 17:31S 32°59' E 152°12'817.0
2018-Nov-29 17:01S 32°56' E 152°22'917.0
2018-Nov-29 16:31S 32°50' E 152°29'816.2
2018-Nov-29 16:00S 32°44' E 152°35'612.4
2018-Nov-29 15:30S 32°40' E 152°41'713.1
2018-Nov-29 15:00S 32°35' E 152°46'713.0
2018-Nov-29 14:27S 32°29' E 152°50'  

Dump ship's entire track history